Time;durP1;ratioP1;P1;durP2;ratioP2;P2;SDS_P1;SDS_P2;PMS_P1;PMS_P2;Temp;Humidity;BMP_temperature;BMP_pressure;BME280_temperature;BME280_humidity;BME280_pressure;Samples;Min_cycle;Max_cycle;Signal;HPM_P1;HPM_P2
2022/02/22 00:01:21;;;;;;;5.37;1.77;;;;;;;4.52;100.00;99602.09;5133160;27;20611;-73
2022/02/22 00:03:46;;;;;;;6.50;2.33;;;;;;;4.50;100.00;99619.69;5133592;27;20638;-73
2022/02/22 00:06:12;;;;;;;0.57;0.57;;;;;;;4.46;100.00;99617.56;5133054;27;20510;-72
2022/02/22 00:08:37;;;;;;;10.90;1.83;;;;;;;4.45;100.00;99602.44;5133128;27;20208;-74
2022/02/22 00:11:03;;;;;;;1.83;1.53;;;;;;;4.44;100.00;99608.13;5133078;27;20176;-73
2022/02/22 00:13:28;;;;;;;4.13;2.07;;;;;;;4.44;100.00;99598.13;5133054;27;20232;-73
2022/02/22 00:15:55;;;;;;;4.87;1.07;;;;;;;4.42;100.00;99613.03;5133188;27;20260;-73
2022/02/22 00:18:21;;;;;;;17.03;1.63;;;;;;;4.45;100.00;99617.84;5131771;27;20603;-73
2022/02/22 00:20:47;;;;;;;3.03;1.47;;;;;;;4.54;100.00;99639.66;5133067;27;20259;-73
2022/02/22 00:23:13;;;;;;;8.00;0.87;;;;;;;4.61;100.00;99646.28;5132950;27;20176;-73
2022/02/22 00:25:38;;;;;;;5.13;1.87;;;;;;;4.60;100.00;99649.28;5132925;27;20530;-72
2022/02/22 00:28:04;;;;;;;6.47;1.97;;;;;;;4.66;100.00;99677.91;5132858;27;20204;-73
2022/02/22 00:30:29;;;;;;;7.20;2.03;;;;;;;4.71;100.00;99680.53;5132877;27;20260;-73
2022/02/22 00:32:55;;;;;;;4.53;1.30;;;;;;;4.75;99.89;99686.97;5132355;27;20180;-74
2022/02/22 00:35:21;;;;;;;5.73;2.47;;;;;;;4.71;99.40;99700.28;5132978;27;20177;-72
2022/02/22 00:37:46;;;;;;;2.03;1.87;;;;;;;4.70;99.42;99709.50;5132466;27;20188;-73
2022/02/22 00:40:13;;;;;;;1.40;1.03;;;;;;;4.72;98.54;99709.19;5132400;27;20574;-73
2022/02/22 00:42:39;;;;;;;8.03;1.10;;;;;;;4.72;97.32;99710.00;5132497;27;20176;-74
2022/02/22 00:45:06;;;;;;;17.13;3.07;;;;;;;4.73;97.15;99733.25;5132431;27;20180;-74
2022/02/22 00:47:32;;;;;;;13.13;1.73;;;;;;;4.60;98.66;99747.50;5132190;27;20204;-73
2022/02/22 00:49:57;;;;;;;7.13;0.87;;;;;;;4.38;100.00;99761.53;5132519;27;20534;-73
2022/02/22 00:52:23;;;;;;;1.07;0.83;;;;;;;4.04;100.00;99755.38;5132430;27;20172;-74
2022/02/22 00:54:48;;;;;;;4.63;2.37;;;;;;;3.85;100.00;99766.91;5132280;27;20179;-75
2022/02/22 00:57:13;;;;;;;1.10;0.70;;;;;;;3.76;100.00;99757.00;5132297;27;20584;-74
2022/02/22 00:59:39;;;;;;;3.17;0.90;;;;;;;3.77;100.00;99766.72;5132291;27;20173;-73
2022/02/22 01:02:04;;;;;;;0.70;0.60;;;;;;;3.84;100.00;99784.22;5132154;27;20187;-75
2022/02/22 01:04:30;;;;;;;1.60;0.57;;;;;;;3.98;100.00;99781.66;5132171;27;20172;-73
2022/02/22 01:06:55;;;;;;;8.27;1.83;;;;;;;4.12;100.00;99806.94;5132144;27;20196;-73
2022/02/22 01:09:21;;;;;;;9.63;1.90;;;;;;;4.17;100.00;99816.91;5132097;27;20643;-73
2022/02/22 01:11:47;;;;;;;5.37;0.93;;;;;;;4.11;100.00;99813.44;5132198;27;20188;-73
2022/02/22 01:14:12;;;;;;;8.60;1.80;;;;;;;4.13;100.00;99824.78;5132046;27;20209;-72
2022/02/22 01:16:38;;;;;;;9.47;3.50;;;;;;;4.16;100.00;99826.91;5131828;27;20252;-73
2022/02/22 01:19:03;;;;;;;3.17;1.20;;;;;;;4.17;100.00;99838.53;5131989;27;20175;-73
2022/02/22 01:21:30;;;;;;;7.30;1.33;;;;;;;4.21;98.91;99847.69;5131908;27;20192;-74
2022/02/22 01:23:55;;;;;;;8.07;2.10;;;;;;;4.21;97.76;99855.00;5130977;27;20607;-73
2022/02/22 01:26:21;;;;;;;8.00;2.57;;;;;;;4.24;96.29;99852.53;5131817;27;20279;-75
2022/02/22 01:28:46;;;;;;;2.47;1.10;;;;;;;4.25;95.99;99869.56;5132077;27;20196;-74
2022/02/22 01:31:12;;;;;;;13.53;2.37;;;;;;;4.26;95.21;99860.34;5131905;28;20623;-75
2022/02/22 01:33:37;;;;;;;2.60;0.47;;;;;;;4.21;95.09;99873.94;5131837;28;20172;-73
2022/02/22 01:36:03;;;;;;;12.83;3.13;;;;;;;4.22;94.95;99862.84;5131684;27;20188;-73
2022/02/22 01:38:29;;;;;;;3.60;0.73;;;;;;;4.20;94.93;99872.31;5131803;27;20611;-76
2022/02/22 01:40:56;;;;;;;10.00;1.17;;;;;;;4.15;94.71;99879.34;5131705;27;20234;-72
2022/02/22 01:43:22;;;;;;;2.00;1.83;;;;;;;4.12;94.34;99874.53;5132681;27;20197;-73
2022/02/22 01:45:47;;;;;;;0.67;0.67;;;;;;;4.07;93.94;99871.88;5135940;27;20176;-74
2022/02/22 01:48:13;;;;;;;1.90;1.23;;;;;;;4.01;94.55;99877.59;5135671;27;20211;-73
2022/02/22 01:50:38;;;;;;;3.07;2.30;;;;;;;4.00;94.77;99893.00;5135846;27;20299;-73
2022/02/22 01:53:04;;;;;;;5.10;3.40;;;;;;;3.99;95.04;99882.47;5135809;27;20173;-74
2022/02/22 01:55:30;;;;;;;12.87;1.60;;;;;;;4.05;93.78;99887.56;5134390;27;20195;-74
2022/02/22 01:57:56;;;;;;;4.80;2.67;;;;;;;4.09;93.41;99906.72;5115374;27;20181;-74
2022/02/22 02:00:21;;;;;;;8.73;2.40;;;;;;;4.07;92.91;99901.59;5115132;28;20537;-74
2022/02/22 02:02:49;;;;;;;6.43;1.83;;;;;;;4.09;92.64;99901.31;5114993;28;20169;-74
2022/02/22 02:05:15;;;;;;;4.30;3.90;;;;;;;4.12;91.92;99892.66;5115008;28;20260;-75
2022/02/22 02:07:40;;;;;;;16.13;1.83;;;;;;;4.18;91.12;99905.00;5114630;28;20299;-74
2022/02/22 02:10:06;;;;;;;1.33;0.80;;;;;;;4.18;90.65;99913.94;5114952;28;20620;-73
2022/02/22 02:12:38;;;;;;;2.37;2.17;;;;;;;4.18;90.29;99932.84;5114808;28;20177;-74
2022/02/22 02:15:05;;;;;;;6.23;1.50;;;;;;;4.18;89.95;99938.25;5114817;28;20637;-74
2022/02/22 02:17:32;;;;;;;24.73;2.43;;;;;;;4.19;89.38;99939.06;5114677;28;20234;-73
2022/02/22 02:19:58;;;;;;;8.27;1.33;;;;;;;4.14;89.63;99952.63;5113553;28;20188;-74
2022/02/22 02:22:23;;;;;;;3.93;1.43;;;;;;;4.09;90.18;99949.97;5114571;28;20632;-73
2022/02/22 02:24:48;;;;;;;10.60;1.50;;;;;;;4.11;89.28;99943.19;5113389;28;20187;-73
2022/02/22 02:27:14;;;;;;;4.33;1.53;;;;;;;4.14;88.80;99948.03;5114630;28;20212;-75
2022/02/22 02:29:43;;;;;;;3.90;2.17;;;;;;;4.14;88.89;99955.34;5114717;28;20628;-73
2022/02/22 02:32:08;;;;;;;2.27;1.77;;;;;;;4.11;89.14;99943.19;5113445;28;20631;-75
2022/02/22 02:34:33;;;;;;;6.50;1.23;;;;;;;4.12;89.02;99962.94;5114846;28;20181;-75
2022/02/22 02:36:59;;;;;;;4.60;1.63;;;;;;;4.08;89.50;99967.28;5114368;28;20189;-75
2022/02/22 02:39:24;;;;;;;6.90;0.83;;;;;;;4.06;89.74;99955.94;5114407;28;20177;-72
2022/02/22 02:41:50;;;;;;;12.33;1.63;;;;;;;4.06;89.84;99956.75;5114299;28;20173;-74
2022/02/22 02:44:18;;;;;;;8.57;2.77;;;;;;;4.09;89.33;99958.09;5114217;28;20173;-74
2022/02/22 02:46:44;;;;;;;2.00;1.53;;;;;;;4.09;89.25;99972.41;5112581;28;20575;-73
2022/02/22 02:49:12;;;;;;;4.43;0.63;;;;;;;4.10;89.74;99984.03;5113708;28;20166;-74
2022/02/22 02:51:38;;;;;;;4.93;2.03;;;;;;;4.08;89.53;99984.31;5113889;28;20203;-73
2022/02/22 02:54:04;;;;;;;7.90;1.70;;;;;;;4.09;89.05;99987.81;5114206;28;20241;-72
2022/02/22 02:56:29;;;;;;;3.73;1.63;;;;;;;3.98;90.51;99984.34;5115813;28;20173;-73
2022/02/22 02:58:57;;;;;;;8.77;1.93;;;;;;;3.85;92.14;99985.78;5113879;28;20195;-74
2022/02/22 03:01:23;;;;;;;8.13;2.30;;;;;;;3.74;93.75;99997.72;5113851;28;20625;-73
2022/02/22 03:03:49;;;;;;;7.43;1.63;;;;;;;3.70;94.32;100002.06;5113993;28;20268;-73
2022/02/22 03:06:14;;;;;;;0.77;0.77;;;;;;;3.70;94.72;100006.66;5113821;28;20259;-73
2022/02/22 03:08:40;;;;;;;6.27;0.90;;;;;;;3.64;94.54;100010.47;5112473;28;20273;-73
2022/02/22 03:11:05;;;;;;;3.77;2.27;;;;;;;3.62;93.83;100020.72;5113633;28;20628;-72
2022/02/22 03:13:31;;;;;;;10.90;0.73;;;;;;;3.58;93.03;100015.88;5113437;28;20708;-73
2022/02/22 03:15:56;;;;;;;0.87;0.67;;;;;;;3.54;93.43;100020.22;5113565;28;20173;-73
2022/02/22 03:18:21;;;;;;;0.50;0.50;;;;;;;3.53;92.85;100032.09;5113480;28;20204;-73
2022/02/22 03:20:47;;;;;;;2.07;0.50;;;;;;;3.50;92.99;100031.84;5113687;28;20182;-72
2022/02/22 03:23:12;;;;;;;1.90;0.77;;;;;;;3.49;93.10;100044.53;5113604;27;20173;-73
2022/02/22 03:25:38;;;;;;;6.80;0.30;;;;;;;3.49;93.29;100039.16;5113480;28;20545;-73
2022/02/22 03:28:05;;;;;;;4.30;2.80;;;;;;;3.51;93.55;100057.78;5113340;27;20727;-73
2022/02/22 03:30:32;;;;;;;3.20;0.60;;;;;;;3.52;93.51;100045.88;5113329;28;20169;-73
2022/02/22 03:32:58;;;;;;;9.20;1.43;;;;;;;3.53;93.61;100061.81;5113356;28;20260;-73
2022/02/22 03:35:24;;;;;;;5.10;0.43;;;;;;;3.50;94.23;100050.75;5113288;28;20565;-73
2022/02/22 03:37:49;;;;;;;0.53;0.50;;;;;;;3.45;94.37;100059.66;5113007;28;20181;-75
2022/02/22 03:40:14;;;;;;;0.43;0.43;;;;;;;3.42;94.79;100062.09;5113159;28;20256;-74
2022/02/22 03:42:42;;;;;;;1.10;1.00;;;;;;;3.33;95.75;100056.47;5113029;28;20540;-74
2022/02/22 03:45:10;;;;;;;7.53;2.03;;;;;;;3.29;96.86;100050.78;5114350;27;20174;-74
2022/02/22 03:47:37;;;;;;;3.67;0.83;;;;;;;3.23;97.84;100049.19;5133562;27;20299;-73
2022/02/22 03:50:04;;;;;;;11.67;1.77;;;;;;;3.28;98.55;100067.25;5133778;27;20695;-73
2022/02/22 03:52:30;;;;;;;2.33;2.13;;;;;;;3.33;98.77;100077.22;5133417;27;20180;-75
2022/02/22 03:54:56;;;;;;;1.03;0.73;;;;;;;3.27;97.55;100057.53;5132144;27;20192;-73
2022/02/22 03:57:21;;;;;;;1.77;0.90;;;;;;;3.22;99.07;100057.56;5133184;27;20234;-73
2022/02/22 03:59:47;;;;;;;11.17;3.30;;;;;;;3.15;100.00;100048.91;5133364;27;20184;-74
2022/02/22 04:02:13;;;;;;;13.93;2.70;;;;;;;3.10;100.00;100068.63;5133687;27;20188;-74
2022/02/22 04:04:38;;;;;;;6.23;2.10;;;;;;;3.03;100.00;100062.69;5133240;27;20177;-74
2022/02/22 04:07:03;;;;;;;5.83;1.67;;;;;;;2.98;100.00;100071.59;5130453;27;20234;-75
2022/02/22 04:09:29;;;;;;;8.60;1.93;;;;;;;3.01;100.00;100075.63;5133165;27;20173;-74
2022/02/22 04:11:54;;;;;;;9.57;1.93;;;;;;;2.99;100.00;100089.41;5132900;27;20296;-75
2022/02/22 04:14:20;;;;;;;2.50;2.33;;;;;;;2.98;100.00;100087.78;5133095;27;20627;-74
2022/02/22 04:16:45;;;;;;;1.57;1.37;;;;;;;2.99;100.00;100085.91;5132963;27;20172;-75
2022/02/22 04:19:10;;;;;;;6.60;1.20;;;;;;;3.02;100.00;100087.25;5132887;27;20164;-75
2022/02/22 04:21:36;;;;;;;1.13;0.77;;;;;;;3.09;100.00;100085.09;5132979;27;20178;-76
2022/02/22 04:24:02;;;;;;;4.53;2.57;;;;;;;3.19;100.00;100096.69;5132907;27;20169;-74
2022/02/22 04:26:27;;;;;;;0.83;0.83;;;;;;;3.20;100.00;100089.41;5132371;27;20200;-76
2022/02/22 04:28:54;;;;;;;8.87;3.83;;;;;;;3.16;99.66;100105.31;5132331;27;20224;-75
2022/02/22 04:31:19;;;;;;;0.63;0.63;;;;;;;3.11;99.65;100108.03;5132630;27;20168;-73
2022/02/22 04:33:45;;;;;;;11.10;1.90;;;;;;;3.10;99.48;100105.59;5132814;27;20267;-75
2022/02/22 04:36:10;;;;;;;4.47;0.80;;;;;;;3.18;98.49;100115.84;5132572;27;20293;-73
2022/02/22 04:38:35;;;;;;;1.80;0.67;;;;;;;3.17;97.95;100112.34;5132529;27;20267;-73
2022/02/22 04:41:01;;;;;;;5.30;1.07;;;;;;;3.19;96.95;100125.59;5132636;27;20200;-74
2022/02/22 04:43:26;;;;;;;7.57;0.87;;;;;;;3.18;96.89;100129.34;5132530;27;20610;-73
2022/02/22 04:45:52;;;;;;;4.13;0.93;;;;;;;3.23;95.90;100137.47;5132512;27;20659;-73
2022/02/22 04:48:17;;;;;;;7.97;1.13;;;;;;;3.16;95.76;100142.28;5132227;27;20200;-75
2022/02/22 04:50:43;;;;;;;9.60;2.00;;;;;;;3.15;96.16;100141.50;5132265;27;20220;-73
2022/02/22 04:53:09;;;;;;;1.50;1.37;;;;;;;3.25;95.71;100149.59;5132393;27;20172;-73
2022/02/22 04:55:35;;;;;;;3.73;2.20;;;;;;;3.29;95.47;100155.25;5130887;27;20180;-73
2022/02/22 04:58:00;;;;;;;5.27;1.87;;;;;;;3.30;95.77;100154.19;5132302;27;20518;-73
2022/02/22 05:00:26;;;;;;;14.47;2.47;;;;;;;3.34;95.55;100163.38;5132150;27;20236;-74
2022/02/22 05:02:51;;;;;;;7.80;1.60;;;;;;;3.44;94.87;100166.06;5132054;27;20180;-74
2022/02/22 05:05:17;;;;;;;1.33;0.73;;;;;;;3.51;94.91;100185.50;5132033;27;20302;-73
2022/02/22 05:07:42;;;;;;;14.63;2.43;;;;;;;3.55;94.68;100188.47;5132253;27;20821;-74
2022/02/22 05:10:10;;;;;;;16.80;2.20;;;;;;;3.44;95.74;100174.16;5132064;27;20181;-74
2022/02/22 05:12:35;;;;;;;2.83;1.00;;;;;;;3.31;97.49;100165.78;5132123;27;20241;-73
2022/02/22 05:15:01;;;;;;;8.10;2.00;;;;;;;3.26;99.33;100175.50;5132147;27;20565;-73
2022/02/22 05:17:26;;;;;;;5.07;1.87;;;;;;;3.22;100.00;100185.25;5131553;27;20199;-74
2022/02/22 05:19:51;;;;;;;6.47;2.37;;;;;;;3.27;100.00;100179.03;5132116;27;20260;-73
2022/02/22 05:22:17;;;;;;;14.63;1.80;;;;;;;3.42;100.00;100189.00;5131715;27;20175;-73
2022/02/22 05:24:43;;;;;;;1.87;1.33;;;;;;;3.53;98.49;100187.94;5131929;27;20559;-74
2022/02/22 05:27:08;;;;;;;13.40;1.37;;;;;;;3.58;97.50;100188.72;5131488;27;20253;-74
2022/02/22 05:29:34;;;;;;;6.50;1.80;;;;;;;3.62;96.10;100196.28;5131559;27;20168;-73
2022/02/22 05:31:59;;;;;;;6.30;1.80;;;;;;;3.62;94.47;100199.81;5131731;27;20179;-73
2022/02/22 05:34:27;;;;;;;7.57;1.60;;;;;;;3.56;93.52;100184.69;5122041;27;20210;-74
2022/02/22 05:36:53;;;;;;;14.70;1.83;;;;;;;3.53;93.71;100202.25;5110613;28;20192;-74
2022/02/22 05:39:19;;;;;;;1.70;0.80;;;;;;;3.48;93.39;100188.75;5111012;28;20597;-74
2022/02/22 05:41:45;;;;;;;1.37;0.60;;;;;;;3.49;92.77;100208.47;5111210;28;20230;-73
2022/02/22 05:44:10;;;;;;;5.83;1.57;;;;;;;3.47;92.29;100216.00;5111183;28;20687;-73
2022/02/22 05:46:35;;;;;;;3.30;1.17;;;;;;;3.41;93.01;100211.69;5110928;28;20553;-73
2022/02/22 05:49:01;;;;;;;0.83;0.83;;;;;;;3.33;93.79;100194.16;5110716;28;20188;-73
2022/02/22 05:51:26;;;;;;;3.87;2.87;;;;;;;3.26;94.34;100209.78;5109694;28;20611;-73
2022/02/22 05:53:51;;;;;;;2.77;1.40;;;;;;;3.24;94.50;100210.06;5110891;28;20183;-74
2022/02/22 05:56:18;;;;;;;11.07;2.37;;;;;;;3.20;94.88;100224.38;5110927;28;20177;-74
2022/02/22 05:58:44;;;;;;;2.80;0.87;;;;;;;3.18;94.76;100219.25;5110889;28;20635;-73
2022/02/22 06:01:09;;;;;;;2.43;1.70;;;;;;;3.14;94.92;100222.72;5110932;28;20169;-74
2022/02/22 06:03:34;;;;;;;6.17;1.27;;;;;;;3.10;95.37;100205.47;5110765;28;20544;-73
2022/02/22 06:06:00;;;;;;;2.83;1.67;;;;;;;3.05;95.21;100213.56;5110710;28;20574;-73
2022/02/22 06:08:27;;;;;;;8.90;1.23;;;;;;;3.01;95.10;100225.94;5110528;28;20747;-73
2022/02/22 06:10:52;;;;;;;0.87;0.67;;;;;;;3.02;94.84;100241.06;5109709;28;20517;-73
2022/02/22 06:13:18;;;;;;;2.83;1.57;;;;;;;2.97;94.99;100231.06;5110774;28;20177;-73
2022/02/22 06:15:44;;;;;;;2.57;1.60;;;;;;;3.02;94.68;100243.75;5110859;28;20188;-73
2022/02/22 06:18:09;;;;;;;3.63;1.90;;;;;;;2.97;94.51;100253.47;5110645;28;20181;-74
2022/02/22 06:20:35;;;;;;;10.30;1.47;;;;;;;2.94;94.36;100251.31;5110732;28;20185;-73
2022/02/22 06:23:01;;;;;;;1.80;1.03;;;;;;;2.91;94.77;100251.84;5110597;28;20170;-74
2022/02/22 06:25:27;;;;;;;11.00;2.37;;;;;;;3.01;94.68;100269.94;5110749;28;20206;-74
2022/02/22 06:27:53;;;;;;;10.73;1.33;;;;;;;3.00;94.72;100262.91;5110473;28;20564;-73
2022/02/22 06:30:20;;;;;;;0.33;0.33;;;;;;;3.02;94.79;100262.66;5111257;28;20180;-73
2022/02/22 06:32:46;;;;;;;1.87;0.80;;;;;;;3.05;94.34;100262.94;5114402;28;20165;-73
2022/02/22 06:35:12;;;;;;;8.67;2.33;;;;;;;3.02;94.43;100271.53;5114420;28;20547;-74
2022/02/22 06:37:37;;;;;;;3.63;1.33;;;;;;;3.03;94.58;100251.59;5114193;28;20181;-73
2022/02/22 06:40:05;;;;;;;3.53;1.97;;;;;;;3.09;94.34;100282.09;5118136;27;20672;-73
2022/02/22 06:42:32;;;;;;;10.90;2.27;;;;;;;3.12;94.10;100290.47;5138201;27;20180;-73
2022/02/22 06:44:57;;;;;;;2.50;1.30;;;;;;;3.15;93.76;100289.13;5140509;27;20180;-73
2022/02/22 06:47:22;;;;;;;36.27;2.47;;;;;;;3.12;93.87;100285.09;5116983;27;20204;-73
2022/02/22 06:49:48;;;;;;;2.73;2.53;;;;;;;3.12;94.14;100293.19;5114015;28;20217;-73
2022/02/22 06:52:13;;;;;;;6.73;1.37;;;;;;;3.13;93.84;100312.88;5113842;28;20175;-73
2022/02/22 06:54:39;;;;;;;8.13;3.90;;;;;;;3.11;94.24;100296.97;5127980;27;20673;-74
2022/02/22 06:57:04;;;;;;;0.23;0.10;;;;;;;3.08;93.94;100297.50;5142791;27;20325;-75
2022/02/22 06:59:29;;;;;;;0.30;0.27;;;;;;;3.15;93.92;100313.44;5145203;27;20189;-75
2022/02/22 07:01:55;;;;;;;4.83;2.27;;;;;;;3.17;93.71;100298.56;5155353;27;20263;-70
2022/02/22 07:04:20;;;;;;;7.00;1.57;;;;;;;3.20;93.52;100314.28;5139446;27;20173;-70
2022/02/22 07:06:46;;;;;;;12.93;1.80;;;;;;;3.19;93.77;100309.13;5134168;27;20245;-70
2022/02/22 07:09:11;;;;;;;29.87;2.50;;;;;;;3.15;94.26;100316.94;5134325;27;20180;-70
2022/02/22 07:11:36;;;;;;;4.20;1.40;;;;;;;3.23;93.56;100315.63;5134332;27;20594;-71
2022/02/22 07:14:02;;;;;;;1.70;1.60;;;;;;;3.23;93.67;100321.81;5134172;27;20582;-70
2022/02/22 07:16:27;;;;;;;8.33;1.77;;;;;;;3.24;93.54;100325.34;5134189;27;20268;-70
2022/02/22 07:18:53;;;;;;;0.87;0.87;;;;;;;3.22;94.00;100320.22;5132754;27;20176;-70
2022/02/22 07:21:18;;;;;;;2.07;1.70;;;;;;;3.25;93.79;100330.47;5134162;27;20225;-70
2022/02/22 07:23:43;;;;;;;8.13;3.33;;;;;;;3.33;93.13;100331.84;5117777;27;20178;-71
2022/02/22 07:26:09;;;;;;;5.17;3.77;;;;;;;3.41;92.29;100335.91;5113481;28;20533;-71
2022/02/22 07:28:34;;;;;;;2.57;2.40;;;;;;;3.44;92.34;100344.28;5113092;28;20209;-71
2022/02/22 07:30:59;;;;;;;15.20;1.33;;;;;;;3.54;91.94;100349.72;5113331;28;20177;-70
2022/02/22 07:33:25;;;;;;;2.43;0.70;;;;;;;3.66;91.52;100359.47;5113414;28;20188;-72
2022/02/22 07:35:50;;;;;;;1.93;1.07;;;;;;;3.71;91.24;100346.78;5113148;28;20604;-71
2022/02/22 07:38:16;;;;;;;1.60;0.60;;;;;;;3.72;90.93;100347.56;5113086;28;20189;-71
2022/02/22 07:40:41;;;;;;;2.43;1.80;;;;;;;3.69;91.17;100356.22;5112665;28;20189;-72
2022/02/22 07:43:07;;;;;;;6.67;1.30;;;;;;;3.63;91.90;100366.22;5113163;28;20177;-74
2022/02/22 07:45:32;;;;;;;8.50;2.63;;;;;;;3.61;91.90;100359.44;5111747;28;20275;-73
2022/02/22 07:47:59;;;;;;;1.33;0.70;;;;;;;3.61;91.76;100365.66;5112911;28;20608;-73
2022/02/22 07:50:25;;;;;;;3.03;2.30;;;;;;;3.59;92.41;100381.31;5112961;28;20712;-73
2022/02/22 07:52:50;;;;;;;5.40;1.93;;;;;;;3.64;92.24;100384.06;5112958;28;20169;-71
2022/02/22 07:55:16;;;;;;;4.13;0.70;;;;;;;3.70;92.96;100374.06;5111348;28;20177;-72
2022/02/22 07:57:41;;;;;;;6.70;1.23;;;;;;;3.69;93.57;100381.34;5110947;28;20526;-70
2022/02/22 08:00:10;;;;;;;0.60;0.57;;;;;;;3.70;93.62;100358.66;5111919;28;20598;-70
2022/02/22 08:02:36;;;;;;;7.73;1.80;;;;;;;3.75;93.68;100377.56;5112709;28;20177;-70
2022/02/22 08:05:03;;;;;;;2.90;1.50;;;;;;;3.82;93.53;100396.22;5112628;28;20246;-72
2022/02/22 08:07:28;;;;;;;7.20;2.87;;;;;;;3.85;93.55;100391.09;5112447;28;20193;-70
2022/02/22 08:09:53;;;;;;;12.00;1.20;;;;;;;3.87;93.98;100402.44;5112683;28;20238;-70
2022/02/22 08:12:19;;;;;;;3.07;1.07;;;;;;;3.85;94.20;100407.31;5112544;28;20261;-70
2022/02/22 08:14:44;;;;;;;5.77;2.90;;;;;;;3.86;94.47;100408.13;5112229;27;20264;-71
2022/02/22 08:17:09;;;;;;;19.30;1.90;;;;;;;3.86;94.91;100418.94;5111788;28;20272;-71
2022/02/22 08:19:35;;;;;;;0.80;0.77;;;;;;;3.86;95.37;100421.63;5111508;28;20177;-72
2022/02/22 08:22:00;;;;;;;3.97;2.30;;;;;;;3.86;95.56;100416.22;5110502;28;20176;-71
2022/02/22 08:24:26;;;;;;;12.47;2.13;;;;;;;3.86;94.88;100419.75;5111939;28;20174;-71
2022/02/22 08:26:55;;;;;;;1.57;1.47;;;;;;;3.88;95.36;100423.00;5111631;28;20207;-71
2022/02/22 08:29:22;;;;;;;22.77;2.43;;;;;;;3.91;95.09;100432.47;5111874;28;20166;-70
2022/02/22 08:31:47;;;;;;;16.40;3.87;;;;;;;3.89;95.11;100427.31;5111991;28;20178;-70
2022/02/22 08:34:13;;;;;;;4.27;1.70;;;;;;;3.89;94.93;100424.59;5111937;28;20260;-72
2022/02/22 08:36:38;;;;;;;5.70;2.73;;;;;;;3.89;94.62;100423.81;5111289;28;20185;-71
2022/02/22 08:39:04;;;;;;;16.90;2.77;;;;;;;3.93;94.71;100430.31;5111233;28;20542;-70
2022/02/22 08:41:30;;;;;;;19.70;1.53;;;;;;;4.01;94.85;100434.38;5118275;27;20185;-71
2022/02/22 08:43:56;;;;;;;2.87;1.30;;;;;;;4.12;94.56;100447.63;5113100;27;20643;-70
2022/02/22 08:46:22;;;;;;;10.33;1.27;;;;;;;4.23;94.10;100453.06;5111476;28;20177;-73
2022/02/22 08:48:48;;;;;;;3.83;1.67;;;;;;;4.27;93.90;100446.84;5111202;28;20184;-74
2022/02/22 08:51:13;;;;;;;15.37;2.70;;;;;;;4.32;93.82;100448.72;5111387;28;20181;-72
2022/02/22 08:53:39;;;;;;;8.40;1.70;;;;;;;4.33;94.14;100444.94;5110816;28;20174;-73
2022/02/22 08:56:06;;;;;;;1.90;1.60;;;;;;;4.29;93.84;100447.38;5111420;28;20184;-73
2022/02/22 08:58:31;;;;;;;14.43;4.27;;;;;;;4.31;94.45;100441.69;5109662;28;20177;-74
2022/02/22 09:00:58;;;;;;;9.43;0.57;;;;;;;4.36;94.43;100447.94;5111298;28;20180;-73
2022/02/22 09:03:24;;;;;;;1.53;1.43;;;;;;;4.53;95.50;100455.78;5111332;28;20169;-72
2022/02/22 09:05:49;;;;;;;8.23;2.33;;;;;;;4.60;94.87;100448.19;5111238;28;20249;-73
2022/02/22 09:08:15;;;;;;;1.67;1.03;;;;;;;4.63;94.19;100454.94;5110861;28;20214;-74
2022/02/22 09:10:41;;;;;;;13.00;2.47;;;;;;;4.69;94.07;100438.44;5111473;28;20622;-74
2022/02/22 09:13:07;;;;;;;12.87;3.10;;;;;;;4.75;93.56;100439.25;5111070;28;20524;-73
2022/02/22 09:15:32;;;;;;;1.23;1.13;;;;;;;4.75;92.70;100441.94;5111041;28;20172;-74
2022/02/22 09:17:59;;;;;;;11.93;2.67;;;;;;;4.82;92.14;100449.81;5110819;28;20523;-73
2022/02/22 09:20:24;;;;;;;10.20;2.43;;;;;;;4.94;92.14;100434.91;5111011;28;20226;-73
2022/02/22 09:22:50;;;;;;;7.80;2.07;;;;;;;5.10;91.98;100445.69;5110972;28;20566;-73
2022/02/22 09:25:18;;;;;;;2.50;1.33;;;;;;;5.14;90.15;100444.03;5110985;28;20176;-73
2022/02/22 09:27:44;;;;;;;7.10;2.53;;;;;;;5.19;89.91;100460.28;5110521;28;20196;-73
2022/02/22 09:30:15;;;;;;;29.90;1.07;;;;;;;5.14;89.13;100450.28;5110951;28;20682;-73
2022/02/22 09:32:42;;;;;;;5.00;1.47;;;;;;;5.17;88.39;100447.00;5110859;28;20171;-74
2022/02/22 09:35:08;;;;;;;12.60;3.83;;;;;;;5.25;87.91;100454.59;5110798;28;20260;-74
2022/02/22 09:37:33;;;;;;;2.77;0.97;;;;;;;5.37;88.00;100451.56;5110511;28;20256;-73
2022/02/22 09:39:59;;;;;;;1.60;1.50;;;;;;;5.49;88.36;100462.06;5110260;28;20169;-73
2022/02/22 09:42:25;;;;;;;16.53;0.47;;;;;;;5.45;87.29;100450.97;5109821;28;20543;-73
2022/02/22 09:44:51;;;;;;;8.50;2.07;;;;;;;5.44;86.81;100453.97;5110680;28;20173;-73
2022/02/22 09:47:17;;;;;;;9.23;1.90;;;;;;;5.31;86.18;100442.63;5110577;28;20239;-73
2022/02/22 09:49:43;;;;;;;0.47;0.47;;;;;;;5.40;86.32;100452.91;5110838;28;20192;-73
2022/02/22 09:52:08;;;;;;;8.00;1.90;;;;;;;5.35;85.37;100449.13;5110783;28;20169;-73
2022/02/22 09:54:34;;;;;;;0.60;0.60;;;;;;;5.40;84.61;100453.72;5110868;28;20218;-73
2022/02/22 09:57:00;;;;;;;5.23;1.40;;;;;;;5.51;84.08;100459.91;5110565;28;20172;-73
2022/02/22 09:59:25;;;;;;;2.87;2.63;;;;;;;5.60;83.50;100469.88;5110971;28;20536;-73
2022/02/22 10:01:53;;;;;;;0.30;0.30;;;;;;;5.64;83.03;100465.56;5110636;28;20647;-73
2022/02/22 10:04:19;;;;;;;12.00;2.30;;;;;;;5.68;82.50;100452.25;5113163;28;20161;-73
2022/02/22 10:06:45;;;;;;;18.07;1.93;;;;;;;5.75;82.26;100465.47;5114503;28;20189;-73
2022/02/22 10:09:10;;;;;;;2.10;1.13;;;;;;;5.63;81.72;100454.97;5114746;28;20176;-72
2022/02/22 10:11:53;;;;;;;2.83;1.53;;;;;;;5.59;81.41;100457.41;5114601;28;20638;-72
2022/02/22 10:14:22;;;;;;;4.07;1.27;;;;;;;5.69;81.65;100456.56;5114509;28;20218;-71
2022/02/22 10:16:48;;;;;;;12.03;1.70;;;;;;;5.70;81.00;100433.78;5114417;28;20175;-75
2022/02/22 10:19:16;;;;;;;1.67;1.40;;;;;;;5.77;80.93;100431.56;5114318;28;20196;-74
2022/02/22 10:21:56;;;;;;;6.77;1.83;;;;;;;5.75;79.22;100444.59;5114568;28;20195;-78
2022/02/22 10:24:23;;;;;;;7.43;0.83;;;;;;;5.71;78.36;100448.97;5114304;28;20549;-78
2022/02/22 10:26:48;;;;;;;2.27;1.90;;;;;;;5.69;79.25;100445.72;5113981;28;20280;-76
2022/02/22 10:29:19;;;;;;;0.60;0.53;;;;;;;5.65;78.71;100445.47;5114368;28;20252;-77
2022/02/22 10:31:46;;;;;;;14.60;2.00;;;;;;;5.67;79.73;100440.59;5114150;28;20234;-77
2022/02/22 10:34:13;;;;;;;8.13;2.80;;;;;;;5.65;80.63;100437.34;5114259;28;20214;-77
2022/02/22 10:36:41;;;;;;;0.83;0.43;;;;;;;5.63;80.52;100438.69;5113864;28;20182;-75
2022/02/22 10:39:11;;;;;;;7.63;3.20;;;;;;;5.72;80.72;100430.81;5113847;28;20256;-77
2022/02/22 10:41:41;;;;;;;4.67;2.20;;;;;;;5.88;80.97;100441.28;5114209;27;20176;-78
2022/02/22 10:44:09;;;;;;;12.20;4.43;;;;;;;5.94;80.88;100432.06;5114024;28;20664;-78
2022/02/22 10:46:37;;;;;;;8.40;2.23;;;;;;;5.88;78.79;100425.00;5113773;28;20216;-73
2022/02/22 10:49:04;;;;;;;17.00;1.00;;;;;;;6.00;79.05;100440.16;5113913;28;20169;-73
2022/02/22 10:51:41;;;;;;;1.40;1.30;;;;;;;6.16;78.65;100436.25;5113948;28;20173;-76
2022/02/22 10:54:09;;;;;;;0.37;0.37;;;;;;;6.14;77.53;100444.69;5114226;28;20507;-72
2022/02/22 10:56:35;;;;;;;5.87;2.03;;;;;;;6.17;77.39;100454.16;5113751;28;20177;-77
2022/02/22 10:59:03;;;;;;;0.57;0.37;;;;;;;6.13;76.92;100458.53;5113556;28;20229;-75
2022/02/22 11:01:29;;;;;;;3.70;2.23;;;;;;;6.16;77.99;100461.47;5113633;28;20181;-76
2022/02/22 11:03:54;;;;;;;11.97;2.53;;;;;;;6.13;77.62;100453.91;5113530;28;20173;-75
2022/02/22 11:06:21;;;;;;;1.60;1.50;;;;;;;6.19;77.53;100449.25;5113548;28;20200;-72
2022/02/22 11:08:49;;;;;;;4.53;3.10;;;;;;;6.15;77.30;100448.19;5113607;27;20219;-75
2022/02/22 11:11:24;;;;;;;2.80;1.50;;;;;;;6.07;77.39;100451.50;5113512;28;20180;-75
2022/02/22 11:13:59;;;;;;;4.27;1.30;;;;;;;6.15;77.92;100459.06;5113466;28;20169;-77
2022/02/22 11:16:24;;;;;;;2.30;1.27;;;;;;;6.08;76.99;100472.13;5112689;28;20374;-78
2022/02/22 11:18:52;;;;;;;2.80;1.63;;;;;;;6.09;77.05;100466.41;5113075;28;20641;-79
2022/02/22 11:21:20;;;;;;;5.20;1.70;;;;;;;6.10;76.83;100462.63;5113243;28;20663;-76
2022/02/22 11:23:46;;;;;;;15.50;2.10;;;;;;;6.09;76.68;100462.91;5113086;28;20250;-72
2022/02/22 11:26:20;;;;;;;6.73;1.80;;;;;;;6.07;76.47;100465.06;5113191;28;20173;-75